Bluefin — WDE9397 — position and weather

sailwx.info

Track history (hours):
 
Tides and Currents Weather Stations Pressure Air Temp Water Temp Dewpoint Dewpoint Depression Visibility Wind Speed Wind Dir Waves Ship Positions

Bluefin

More information available from US FCC via Universal Licensing System and Coast Guard Vessel Documentation Center.

Last reported at 2014-Aug-20 05:11 UTC. Time now 2014-Aug-20 08:52 UTC.
Position N 39°52' W 075°13'.

Length 166 m; draft 3.4 m.

Type: Towing. MMSI: 367416750.

Date/timePositionNaut miles runAvg speedWind from/ knotsBaromVisibWave heightAir tempDewpointWater temp
2014-Aug-20 05:11N 39°52' W 075°13'0 0.0
2014-Aug-20 04:32N 39°52' W 075°13'0 0.0
2014-Aug-20 03:33N 39°52' W 075°13'0 0.1
2014-Aug-20 02:28N 39°52' W 075°13'0 0.0
2014-Aug-20 01:31N 39°52' W 075°13'0 0.0
2014-Aug-20 00:24N 39°52' W 075°13'0 0.0
2014-Aug-19 14:17N 39°52' W 075°13'0 0.1
2014-Aug-19 13:32N 39°52' W 075°13'0 0.0
2014-Aug-19 11:19N 39°52' W 075°13'0 0.0
2014-Aug-19 10:31N 39°52' W 075°13'0 0.0
2014-Aug-19 09:33N 39°52' W 075°13'55 2.0
2014-Aug-18 06:31N 39°08' W 074°30'1511.0
2014-Aug-18 05:10N 39°19' W 074°17'711.0
2014-Aug-18 04:33N 39°24' W 074°12'1111.0
2014-Aug-18 03:33N 39°34' W 074°05'1111.1
2014-Aug-18 02:33N 39°44' W 073°59'1110.9
2014-Aug-18 01:33N 39°55' W 073°57'1310.8
2014-Aug-18 00:23N 40°07' W 073°56'49 8.2
2014-Aug-17 18:26N 40°54' W 073°39'1011.2
2014-Aug-17 17:34N 40°59' W 073°28'1110.9
2014-Aug-17 16:33N 41°03' W 073°14'1110.6
2014-Aug-17 15:34N 41°08' W 073°02'9 9.1
2014-Aug-17 14:33N 41°15' W 072°55'2 2.4
2014-Aug-17 13:32N 41°18' W 072°54'0 0.0
2014-Aug-17 12:33N 41°18' W 072°54'0 0.0
2014-Aug-17 11:33N 41°18' W 072°54'0 0.0
2014-Aug-17 10:33N 41°18' W 072°54'0 0.0
2014-Aug-17 09:33N 41°18' W 072°54'0 0.0
2014-Aug-17 08:33N 41°18' W 072°54'0 0.0
2014-Aug-17 07:33N 41°18' W 072°54'0 0.0
2014-Aug-17 06:33N 41°18' W 072°54'0 0.0
2014-Aug-17 05:33N 41°18' W 072°54'0 0.0
2014-Aug-17 04:33N 41°18' W 072°54'0 0.0
2014-Aug-17 03:33N 41°18' W 072°54'0 0.0
2014-Aug-17 02:33N 41°18' W 072°54'0 0.0
2014-Aug-17 01:33N 41°18' W 072°54'0 0.0
2014-Aug-17 00:33N 41°18' W 072°54'0 0.0
2014-Aug-16 23:33N 41°18' W 072°54'0 0.0
2014-Aug-16 22:33N 41°18' W 072°54'0 0.0
2014-Aug-16 21:33N 41°18' W 072°54'0 0.1
2014-Aug-16 20:31N 41°18' W 072°54'6 6.3
2014-Aug-16 19:33N 41°12' W 072°55'8 7.7
2014-Aug-16 18:33N 41°07' W 073°03'7 6.8
2014-Aug-16 17:33N 41°04' W 073°11'7 7.3
2014-Aug-16 16:33N 41°01' W 073°20'8 7.6
2014-Aug-16 15:33N 40°58' W 073°30'9 8.3
2014-Aug-16 14:30N 40°54' W 073°40'9 8.9
2014-Aug-16 13:31N 40°48' W 073°48'7 7.7
2014-Aug-16 12:34N 40°46' W 073°57'7 6.9
2014-Aug-16 11:34N 40°40' W 074°03'7 7.0
2014-Aug-16 10:32N 40°33' W 074°01'7 7.6
2014-Aug-16 09:33N 40°29' W 073°54'7 6.8
2014-Aug-16 08:31N 40°22' W 073°54'23 7.6
2014-Aug-16 05:33N 39°59' W 073°56'8 7.6
2014-Aug-16 04:31N 39°51' W 073°57'7 7.3
2014-Aug-16 03:32N 39°44' W 073°59'7 7.4
2014-Aug-16 02:33N 39°38' W 074°03'7 7.4
2014-Aug-16 01:33N 39°31' W 074°07'67 5.5
2014-Aug-15 13:27N 39°28' W 075°34'1210.9
2014-Aug-15 12:21N 39°40' W 075°31'1110.7
2014-Aug-15 11:18N 39°49' W 075°23'8 0.2
2014-Aug-13 18:03N 39°52' W 075°13'0 0.0
2014-Aug-12 20:09N 39°52' W 075°13'0 0.1
2014-Aug-12 19:33N 39°52' W 075°13'0 0.0
2014-Aug-12 18:03N 39°52' W 075°13'0 0.0
2014-Aug-12 17:21N 39°52' W 075°13'0 0.0
2014-Aug-12 16:15N 39°52' W 075°13'0 0.0
2014-Aug-12 11:09N 39°52' W 075°13'0 0.0
2014-Aug-12 10:33N 39°52' W 075°13'0 0.0
2014-Aug-12 09:33N 39°52' W 075°13'0 0.0
2014-Aug-12 08:30N 39°52' W 075°13'0 0.1
2014-Aug-12 07:33N 39°52' W 075°13'0 0.0
2014-Aug-12 06:30N 39°52' W 075°13'0 0.0
2014-Aug-12 05:18N 39°52' W 075°13'0 0.0
2014-Aug-12 04:33N 39°52' W 075°13'0 0.0
2014-Aug-12 03:30N 39°52' W 075°13'0 0.1
2014-Aug-12 02:30N 39°52' W 075°13'0 0.1
2014-Aug-12 01:03N 39°52' W 075°13'0 0.0
2014-Aug-12 00:27N 39°52' W 075°13'0 0.0
2014-Aug-11 17:27N 39°52' W 075°13'2 0.3
2014-Aug-11 12:12N 39°54' W 075°12'0 0.1
2014-Aug-11 11:32N 39°53' W 075°12'2 0.8
2014-Aug-11 09:19N 39°52' W 075°13'0 0.0
2014-Aug-11 08:25N 39°52' W 075°13'0 0.1
2014-Aug-11 07:25N 39°52' W 075°13'0 0.1
2014-Aug-11 06:31N 39°52' W 075°13'0 0.0
2014-Aug-11 05:31N 39°52' W 075°13'0 0.0
2014-Aug-11 04:25N 39°52' W 075°13'0 0.0
2014-Aug-11 03:31N 39°52' W 075°13'62 4.8
2014-Aug-10 14:27N 38°53' W 074°48'910.1
2014-Aug-10 13:33N 38°60' W 074°40'1010.1
2014-Aug-10 12:33N 39°07' W 074°31'1010.1
2014-Aug-10 11:33N 39°15' W 074°22'1010.1
2014-Aug-10 10:33N 39°22' W 074°14'10 9.9
2014-Aug-10 09:33N 39°31' W 074°07'10 9.9
2014-Aug-10 08:33N 39°39' W 074°02'19 9.6
2014-Aug-10 06:33N 39°58' W 073°56'10 9.8
2014-Aug-10 05:33N 40°08' W 073°56'  
Track history (hours):
 
Tides and Currents Weather Stations Pressure Air Temp Water Temp Dewpoint Dewpoint Depression Visibility Wind Speed Wind Dir Waves Ship Positions

Bluefin

More information available from US FCC via Universal Licensing System and Coast Guard Vessel Documentation Center.

Last reported at 2014-Aug-20 05:11 UTC. Time now 2014-Aug-20 08:52 UTC.
Position N 39°52' W 075°13'.

Length 166 m; draft 3.4 m.

Type: Towing. MMSI: 367416750.

Date/timePositionNaut miles runAvg speedWind from/ knotsBaromVisibWave heightAir tempDewpointWater temp
2014-Aug-20 05:11N 39°52' W 075°13'0 0.0
2014-Aug-20 04:32N 39°52' W 075°13'0 0.0
2014-Aug-20 03:33N 39°52' W 075°13'0 0.1
2014-Aug-20 02:28N 39°52' W 075°13'0 0.0
2014-Aug-20 01:31N 39°52' W 075°13'0 0.0
2014-Aug-20 00:24N 39°52' W 075°13'0 0.0
2014-Aug-19 14:17N 39°52' W 075°13'0 0.1
2014-Aug-19 13:32N 39°52' W 075°13'0 0.0
2014-Aug-19 11:19N 39°52' W 075°13'0 0.0
2014-Aug-19 10:31N 39°52' W 075°13'0 0.0
2014-Aug-19 09:33N 39°52' W 075°13'55 2.0
2014-Aug-18 06:31N 39°08' W 074°30'1511.0
2014-Aug-18 05:10N 39°19' W 074°17'711.0
2014-Aug-18 04:33N 39°24' W 074°12'1111.0
2014-Aug-18 03:33N 39°34' W 074°05'1111.1
2014-Aug-18 02:33N 39°44' W 073°59'1110.9
2014-Aug-18 01:33N 39°55' W 073°57'1310.8
2014-Aug-18 00:23N 40°07' W 073°56'49 8.2
2014-Aug-17 18:26N 40°54' W 073°39'1011.2
2014-Aug-17 17:34N 40°59' W 073°28'1110.9
2014-Aug-17 16:33N 41°03' W 073°14'1110.6
2014-Aug-17 15:34N 41°08' W 073°02'9 9.1
2014-Aug-17 14:33N 41°15' W 072°55'2 2.4
2014-Aug-17 13:32N 41°18' W 072°54'0 0.0
2014-Aug-17 12:33N 41°18' W 072°54'0 0.0
2014-Aug-17 11:33N 41°18' W 072°54'0 0.0
2014-Aug-17 10:33N 41°18' W 072°54'0 0.0
2014-Aug-17 09:33N 41°18' W 072°54'0 0.0
2014-Aug-17 08:33N 41°18' W 072°54'0 0.0
2014-Aug-17 07:33N 41°18' W 072°54'0 0.0
2014-Aug-17 06:33N 41°18' W 072°54'0 0.0
2014-Aug-17 05:33N 41°18' W 072°54'0 0.0
2014-Aug-17 04:33N 41°18' W 072°54'0 0.0
2014-Aug-17 03:33N 41°18' W 072°54'0 0.0
2014-Aug-17 02:33N 41°18' W 072°54'0 0.0
2014-Aug-17 01:33N 41°18' W 072°54'0 0.0
2014-Aug-17 00:33N 41°18' W 072°54'0 0.0
2014-Aug-16 23:33N 41°18' W 072°54'0 0.0
2014-Aug-16 22:33N 41°18' W 072°54'0 0.0
2014-Aug-16 21:33N 41°18' W 072°54'0 0.1
2014-Aug-16 20:31N 41°18' W 072°54'6 6.3
2014-Aug-16 19:33N 41°12' W 072°55'8 7.7
2014-Aug-16 18:33N 41°07' W 073°03'7 6.8
2014-Aug-16 17:33N 41°04' W 073°11'7 7.3
2014-Aug-16 16:33N 41°01' W 073°20'8 7.6
2014-Aug-16 15:33N 40°58' W 073°30'9 8.3
2014-Aug-16 14:30N 40°54' W 073°40'9 8.9
2014-Aug-16 13:31N 40°48' W 073°48'7 7.7
2014-Aug-16 12:34N 40°46' W 073°57'7 6.9
2014-Aug-16 11:34N 40°40' W 074°03'7 7.0
2014-Aug-16 10:32N 40°33' W 074°01'7 7.6
2014-Aug-16 09:33N 40°29' W 073°54'7 6.8
2014-Aug-16 08:31N 40°22' W 073°54'23 7.6
2014-Aug-16 05:33N 39°59' W 073°56'8 7.6
2014-Aug-16 04:31N 39°51' W 073°57'7 7.3
2014-Aug-16 03:32N 39°44' W 073°59'7 7.4
2014-Aug-16 02:33N 39°38' W 074°03'7 7.4
2014-Aug-16 01:33N 39°31' W 074°07'67 5.5
2014-Aug-15 13:27N 39°28' W 075°34'1210.9
2014-Aug-15 12:21N 39°40' W 075°31'1110.7
2014-Aug-15 11:18N 39°49' W 075°23'8 0.2
2014-Aug-13 18:03N 39°52' W 075°13'0 0.0
2014-Aug-12 20:09N 39°52' W 075°13'0 0.1
2014-Aug-12 19:33N 39°52' W 075°13'0 0.0
2014-Aug-12 18:03N 39°52' W 075°13'0 0.0
2014-Aug-12 17:21N 39°52' W 075°13'0 0.0
2014-Aug-12 16:15N 39°52' W 075°13'0 0.0
2014-Aug-12 11:09N 39°52' W 075°13'0 0.0
2014-Aug-12 10:33N 39°52' W 075°13'0 0.0
2014-Aug-12 09:33N 39°52' W 075°13'0 0.0
2014-Aug-12 08:30N 39°52' W 075°13'0 0.1
2014-Aug-12 07:33N 39°52' W 075°13'0 0.0
2014-Aug-12 06:30N 39°52' W 075°13'0 0.0
2014-Aug-12 05:18N 39°52' W 075°13'0 0.0
2014-Aug-12 04:33N 39°52' W 075°13'0 0.0
2014-Aug-12 03:30N 39°52' W 075°13'0 0.1
2014-Aug-12 02:30N 39°52' W 075°13'0 0.1
2014-Aug-12 01:03N 39°52' W 075°13'0 0.0
2014-Aug-12 00:27N 39°52' W 075°13'0 0.0
2014-Aug-11 17:27N 39°52' W 075°13'2 0.3
2014-Aug-11 12:12N 39°54' W 075°12'0 0.1
2014-Aug-11 11:32N 39°53' W 075°12'2 0.8
2014-Aug-11 09:19N 39°52' W 075°13'0 0.0
2014-Aug-11 08:25N 39°52' W 075°13'0 0.1
2014-Aug-11 07:25N 39°52' W 075°13'0 0.1
2014-Aug-11 06:31N 39°52' W 075°13'0 0.0
2014-Aug-11 05:31N 39°52' W 075°13'0 0.0
2014-Aug-11 04:25N 39°52' W 075°13'0 0.0
2014-Aug-11 03:31N 39°52' W 075°13'62 4.8
2014-Aug-10 14:27N 38°53' W 074°48'910.1
2014-Aug-10 13:33N 38°60' W 074°40'1010.1
2014-Aug-10 12:33N 39°07' W 074°31'1010.1
2014-Aug-10 11:33N 39°15' W 074°22'1010.1
2014-Aug-10 10:33N 39°22' W 074°14'10 9.9
2014-Aug-10 09:33N 39°31' W 074°07'10 9.9
2014-Aug-10 08:33N 39°39' W 074°02'19 9.6
2014-Aug-10 06:33N 39°58' W 073°56'10 9.8
2014-Aug-10 05:33N 40°08' W 073°56'  

Dump ship's entire track history